Time;durP1;ratioP1;P1;durP2;ratioP2;P2;SDS_P1;SDS_P2;PMS_P1;PMS_P2;Temp;Humidity;BMP_temperature;BMP_pressure;BME280_temperature;BME280_humidity;BME280_pressure;Samples;Min_cycle;Max_cycle;Signal;HPM_P1;HPM_P2
2023/05/27 00:00:27;;;;;;;15.73;5.93;;;12.70;98.90;;;;;;2107369;28;20038;-72
2023/05/27 00:01:28;;;;;;;17.50;5.50;;;12.70;98.90;;;;;;2104046;28;20044;-72
2023/05/27 00:02:28;;;;;;;18.10;5.72;;;12.70;99.40;;;;;;2107017;28;20024;-72
2023/05/27 00:03:29;;;;;;;14.95;5.30;;;12.70;99.50;;;;;;2101472;28;20024;-72
2023/05/27 00:04:30;;;;;;;16.45;5.68;;;12.70;99.10;;;;;;2102477;28;20527;-72
2023/05/27 00:05:30;;;;;;;15.40;6.22;;;12.60;99.80;;;;;;2106314;28;20071;-72
2023/05/27 00:06:31;;;;;;;11.80;4.93;;;12.60;99.90;;;;;;2105941;28;20036;-72
2023/05/27 00:07:31;;;;;;;15.98;5.75;;;12.60;99.70;;;;;;2103776;28;20099;-72
2023/05/27 00:08:32;;;;;;;19.88;6.32;;;12.60;99.80;;;;;;2105351;28;20721;-72
2023/05/27 00:09:33;;;;;;;17.52;5.25;;;12.60;99.90;;;;;;2105000;28;20051;-72
2023/05/27 00:10:33;;;;;;;18.13;6.18;;;12.50;99.90;;;;;;2104995;28;20027;-72
2023/05/27 00:11:34;;;;;;;14.63;5.40;;;12.50;99.90;;;;;;2103042;28;20059;-72
2023/05/27 00:12:34;;;;;;;20.48;6.63;;;12.50;99.90;;;;;;2106106;28;20093;-72
2023/05/27 00:13:35;;;;;;;16.77;6.15;;;12.50;99.90;;;;;;2105850;28;20028;-72
2023/05/27 00:14:35;;;;;;;19.10;6.47;;;12.50;99.90;;;;;;2103081;28;20078;-72
2023/05/27 00:15:40;;;;;;;22.95;6.22;;;12.50;99.90;;;;;;2104397;28;20024;-72
2023/05/27 00:16:40;;;;;;;19.30;6.13;;;12.40;99.90;;;;;;2103569;28;20019;-72
2023/05/27 00:17:42;;;;;;;17.88;5.53;;;12.40;99.90;;;;;;2103069;28;20024;-72
2023/05/27 00:18:43;;;;;;;22.23;6.50;;;12.40;99.90;;;;;;2103880;28;20016;-72
2023/05/27 00:19:47;;;;;;;17.98;6.38;;;12.30;99.90;;;;;;2104619;28;20027;-72
2023/05/27 00:20:48;;;;;;;16.30;5.75;;;12.40;99.90;;;;;;2104480;28;20024;-71
2023/05/27 00:21:52;;;;;;;17.40;5.68;;;12.30;99.90;;;;;;2105735;28;20024;-72
2023/05/27 00:22:52;;;;;;;16.77;5.30;;;12.30;99.90;;;;;;2104111;28;20392;-74
2023/05/27 00:23:53;;;;;;;15.10;4.43;;;12.30;99.90;;;;;;2102970;28;20012;-72
2023/05/27 00:24:53;;;;;;;23.75;7.13;;;12.30;99.90;;;;;;2102744;28;20028;-72
2023/05/27 00:25:54;;;;;;;13.43;5.82;;;12.30;99.90;;;;;;2105738;28;20016;-72
2023/05/27 00:26:54;;;;;;;19.35;6.28;;;12.30;99.90;;;;;;2105030;28;20021;-72
2023/05/27 00:27:56;;;;;;;19.20;6.20;;;12.30;99.90;;;;;;2104919;28;20031;-72
2023/05/27 00:28:56;;;;;;;22.30;6.13;;;12.20;99.90;;;;;;2103884;28;20297;-72
2023/05/27 00:29:57;;;;;;;17.88;5.25;;;12.30;99.90;;;;;;2104376;28;20020;-72
2023/05/27 00:30:58;;;;;;;22.40;6.07;;;12.20;99.90;;;;;;2102058;28;20032;-72
2023/05/27 00:32:02;;;;;;;18.88;6.13;;;12.20;99.90;;;;;;2103524;28;20036;-72
2023/05/27 00:33:03;;;;;;;15.05;5.55;;;12.20;99.90;;;;;;2105309;28;20025;-72
2023/05/27 00:34:03;;;;;;;16.42;6.28;;;12.20;99.90;;;;;;2103290;28;20024;-72
2023/05/27 00:35:05;;;;;;;17.15;5.75;;;12.10;99.90;;;;;;2102985;28;20020;-72
2023/05/27 00:36:05;;;;;;;16.48;4.78;;;12.10;99.90;;;;;;2103487;28;20012;-72
2023/05/27 00:37:06;;;;;;;20.52;6.03;;;12.10;99.90;;;;;;2103208;28;20024;-72
2023/05/27 00:38:07;;;;;;;14.85;5.90;;;12.10;99.90;;;;;;2104889;28;20376;-72
2023/05/27 00:39:07;;;;;;;19.90;5.88;;;12.10;99.90;;;;;;2106607;28;20024;-74
2023/05/27 00:40:14;;;;;;;15.40;5.78;;;12.10;99.90;;;;;;2103927;28;20024;-74
2023/05/27 00:41:14;;;;;;;21.92;5.97;;;12.10;99.90;;;;;;2104412;28;20024;-72
2023/05/27 00:42:16;;;;;;;18.13;5.90;;;12.00;99.90;;;;;;2106574;28;20045;-74
2023/05/27 00:43:16;;;;;;;13.52;5.25;;;12.10;99.90;;;;;;2105893;28;20043;-73
2023/05/27 00:44:18;;;;;;;15.38;4.97;;;12.10;99.90;;;;;;2104059;28;20919;-74
2023/05/27 00:45:18;;;;;;;14.85;6.05;;;12.00;99.90;;;;;;2104603;28;20453;-73
2023/05/27 00:46:19;;;;;;;14.73;5.70;;;12.00;99.90;;;;;;2103077;28;20400;-74
2023/05/27 00:47:20;;;;;;;14.70;5.55;;;12.00;99.90;;;;;;2101806;28;20036;-74
2023/05/27 00:48:20;;;;;;;19.65;6.35;;;12.00;99.90;;;;;;2103189;28;20020;-73
2023/05/27 00:49:26;;;;;;;16.02;6.43;;;12.00;99.90;;;;;;2103686;28;20023;-71
2023/05/27 00:50:26;;;;;;;14.23;5.22;;;12.00;99.90;;;;;;2103632;28;20123;-74
2023/05/27 00:51:27;;;;;;;16.70;5.03;;;12.00;99.90;;;;;;2102785;28;20740;-74
2023/05/27 00:52:28;;;;;;;17.75;5.35;;;12.00;99.90;;;;;;2104512;28;20028;-72
2023/05/27 00:53:38;;;;;;;16.27;5.70;;;12.00;99.90;;;;;;2104708;28;20785;-71
2023/05/27 00:54:43;;;;;;;12.25;5.22;;;12.00;99.90;;;;;;2103415;28;20035;-74
2023/05/27 00:55:44;;;;;;;16.88;5.95;;;12.00;99.90;;;;;;2101524;28;20709;-74
2023/05/27 00:56:45;;;;;;;19.17;5.75;;;11.90;99.90;;;;;;2105466;28;20102;-73
2023/05/27 00:57:47;;;;;;;18.15;6.35;;;12.00;99.90;;;;;;2104105;28;20047;-74
2023/05/27 00:58:47;;;;;;;18.85;5.82;;;12.00;99.90;;;;;;2106063;28;20019;-74
2023/05/27 00:59:48;;;;;;;15.77;5.55;;;12.00;99.90;;;;;;2105980;28;20020;-74
2023/05/27 01:00:49;;;;;;;19.77;6.15;;;11.90;99.90;;;;;;2104500;28;20024;-74
2023/05/27 01:01:49;;;;;;;19.02;5.95;;;11.90;99.90;;;;;;2102666;28;20773;-74
2023/05/27 01:02:51;;;;;;;19.52;6.07;;;11.90;99.90;;;;;;2104575;28;20057;-73
2023/05/27 01:03:52;;;;;;;16.77;5.40;;;11.90;99.90;;;;;;2103553;28;20063;-73
2023/05/27 01:04:53;;;;;;;20.55;6.40;;;11.90;99.90;;;;;;2102872;28;20035;-73
2023/05/27 01:06:00;;;;;;;17.30;5.53;;;11.90;99.90;;;;;;2102920;28;20039;-73
2023/05/27 01:07:14;;;;;;;15.98;5.18;;;11.90;99.90;;;;;;2106599;28;20659;-73
2023/05/27 01:08:47;;;;;;;18.77;5.70;;;11.80;99.90;;;;;;2102889;28;20032;-73
2023/05/27 01:10:10;;;;;;;18.90;6.30;;;11.80;99.90;;;;;;2102183;28;20016;-73
2023/05/27 01:11:13;;;;;;;18.75;5.85;;;11.70;99.90;;;;;;2103356;28;20104;-73
2023/05/27 01:12:39;;;;;;;19.42;5.25;;;11.70;99.90;;;;;;2105565;28;20480;-73
2023/05/27 01:13:46;;;;;;;18.35;6.22;;;11.70;99.90;;;;;;2103715;28;20016;-73
2023/05/27 01:14:49;;;;;;;14.95;5.68;;;11.70;99.90;;;;;;2104378;28;20070;-73
2023/05/27 01:15:52;;;;;;;18.25;6.25;;;11.70;99.90;;;;;;2102802;28;20020;-73
2023/05/27 01:16:57;;;;;;;18.73;6.22;;;11.70;99.90;;;;;;2103577;28;20032;-73
2023/05/27 01:18:01;;;;;;;17.33;4.95;;;11.60;99.90;;;;;;2103887;28;20039;-73
2023/05/27 01:19:08;;;;;;;17.88;6.20;;;11.60;99.90;;;;;;2103472;28;20499;-73
2023/05/27 01:20:11;;;;;;;15.73;5.05;;;11.60;99.90;;;;;;2103522;28;20028;-73
2023/05/27 01:21:14;;;;;;;14.50;4.80;;;11.60;99.90;;;;;;2104784;28;20578;-73
2023/05/27 01:22:17;;;;;;;20.70;6.00;;;11.60;99.90;;;;;;2106220;28;20038;-74
2023/05/27 01:23:17;;;;;;;20.40;6.45;;;11.60;99.90;;;;;;2106299;28;20601;-73
2023/05/27 01:24:18;;;;;;;17.23;5.25;;;11.60;99.90;;;;;;2103532;28;20452;-73
2023/05/27 01:25:19;;;;;;;12.60;5.40;;;11.60;99.90;;;;;;2104381;28;20082;-73
2023/05/27 01:26:20;;;;;;;18.42;5.45;;;11.60;99.90;;;;;;2104374;28;20378;-73
2023/05/27 01:27:20;;;;;;;13.82;4.93;;;11.50;99.90;;;;;;2104455;28;20051;-73
2023/05/27 01:28:21;;;;;;;17.60;5.68;;;11.50;99.90;;;;;;2105522;28;20023;-73
2023/05/27 01:29:22;;;;;;;14.95;5.25;;;11.50;99.90;;;;;;2104285;28;20472;-73
2023/05/27 01:30:22;;;;;;;20.10;5.55;;;11.50;99.90;;;;;;2101405;28;20028;-73
2023/05/27 01:31:51;;;;;;;17.55;5.18;;;11.50;99.90;;;;;;2104952;28;20500;-73
2023/05/27 01:33:09;;;;;;;14.60;5.53;;;11.50;99.90;;;;;;2100079;28;20040;-73
2023/05/27 01:34:15;;;;;;;16.38;5.75;;;11.40;99.90;;;;;;2104745;28;20020;-73
2023/05/27 01:35:31;;;;;;;16.20;5.85;;;11.30;99.90;;;;;;2105866;28;20438;-73
2023/05/27 01:36:39;;;;;;;19.80;5.45;;;11.30;99.90;;;;;;2103305;28;20032;-73
2023/05/27 01:37:43;;;;;;;16.38;5.50;;;11.30;99.90;;;;;;2104745;28;20024;-73
2023/05/27 01:38:47;;;;;;;13.57;5.30;;;11.30;99.90;;;;;;2102875;28;20008;-73
2023/05/27 01:39:50;;;;;;;14.63;5.22;;;11.30;99.90;;;;;;2103217;28;20019;-73
2023/05/27 01:40:51;;;;;;;13.00;5.13;;;11.30;99.90;;;;;;2103339;28;20019;-73
2023/05/27 01:41:52;;;;;;;20.55;5.40;;;11.20;99.90;;;;;;2099667;28;20016;-73
2023/05/27 01:42:53;;;;;;;18.75;6.10;;;11.20;99.90;;;;;;2103122;28;20035;-73
2023/05/27 01:43:54;;;;;;;15.32;5.22;;;11.20;99.90;;;;;;2104025;28;20048;-73
2023/05/27 01:44:56;;;;;;;14.75;5.18;;;11.20;99.90;;;;;;2095143;28;20024;-73
2023/05/27 01:45:57;;;;;;;12.55;5.22;;;11.20;99.90;;;;;;2104145;28;20020;-73
2023/05/27 01:47:01;;;;;;;16.30;5.53;;;11.20;99.90;;;;;;2101088;28;20024;-73
2023/05/27 01:48:01;;;;;;;11.95;4.82;;;11.20;99.90;;;;;;2096743;28;20113;-73
2023/05/27 01:49:03;;;;;;;12.45;5.00;;;11.10;99.90;;;;;;2093936;28;20020;-73
2023/05/27 01:50:04;;;;;;;16.60;5.97;;;11.10;99.90;;;;;;2103581;28;20490;-73
2023/05/27 01:51:05;;;;;;;14.90;4.82;;;11.10;99.90;;;;;;2103475;28;20056;-73
2023/05/27 01:52:06;;;;;;;14.55;4.80;;;11.10;99.90;;;;;;2103948;28;20031;-73
2023/05/27 01:53:06;;;;;;;13.88;5.07;;;11.10;99.90;;;;;;2104755;28;20024;-73
2023/05/27 01:54:07;;;;;;;13.77;5.35;;;11.10;99.90;;;;;;2102952;28;20020;-73
2023/05/27 01:55:08;;;;;;;21.02;5.68;;;11.10;99.90;;;;;;2103092;28;20461;-73
2023/05/27 01:56:08;;;;;;;18.90;5.53;;;11.10;99.90;;;;;;2104302;28;20020;-73
2023/05/27 01:57:09;;;;;;;18.38;6.22;;;11.10;99.90;;;;;;2105181;28;20103;-73
2023/05/27 01:58:09;;;;;;;20.13;5.78;;;11.10;99.90;;;;;;2102706;28;20016;-73
2023/05/27 01:59:10;;;;;;;16.83;4.80;;;11.10;99.90;;;;;;2102094;28;20093;-73
2023/05/27 02:00:11;;;;;;;15.40;5.38;;;11.00;99.90;;;;;;2103950;28;20132;-73
2023/05/27 02:01:12;;;;;;;17.35;5.85;;;11.00;99.90;;;;;;2103435;28;20031;-73
2023/05/27 02:02:12;;;;;;;18.30;6.18;;;11.00;99.90;;;;;;2105059;28;20490;-73
2023/05/27 02:03:13;;;;;;;13.88;5.25;;;11.00;99.90;;;;;;2105420;28;20767;-73
2023/05/27 02:04:13;;;;;;;15.73;5.95;;;11.00;99.90;;;;;;2103651;28;20016;-73
2023/05/27 02:05:14;;;;;;;15.07;4.75;;;11.00;99.90;;;;;;2103085;28;20051;-74
2023/05/27 02:06:15;;;;;;;19.83;5.57;;;11.00;99.90;;;;;;2101433;28;20032;-73
2023/05/27 02:07:16;;;;;;;13.52;5.10;;;11.00;99.90;;;;;;2103520;28;20435;-73
2023/05/27 02:08:17;;;;;;;17.17;5.85;;;11.00;99.90;;;;;;2104950;28;20043;-73
2023/05/27 02:09:17;;;;;;;14.00;5.47;;;11.00;99.90;;;;;;2106032;28;20019;-73
2023/05/27 02:10:18;;;;;;;14.45;5.03;;;11.00;99.90;;;;;;2104092;28;20099;-73
2023/05/27 02:11:18;;;;;;;11.23;5.03;;;11.00;99.90;;;;;;2103870;28;20486;-73
2023/05/27 02:12:19;;;;;;;13.15;4.97;;;11.00;99.90;;;;;;2102778;28;20034;-73
2023/05/27 02:13:20;;;;;;;17.98;5.25;;;11.00;99.90;;;;;;2103798;28;20111;-73
2023/05/27 02:14:21;;;;;;;12.30;5.10;;;11.00;99.90;;;;;;2102212;28;20073;-73
2023/05/27 02:15:23;;;;;;;15.20;5.05;;;11.00;99.90;;;;;;2102744;28;20123;-73
2023/05/27 02:16:24;;;;;;;15.23;5.20;;;11.00;99.90;;;;;;2104468;28;20034;-73
2023/05/27 02:17:25;;;;;;;15.88;5.00;;;11.00;99.90;;;;;;2103991;28;20050;-73
2023/05/27 02:18:25;;;;;;;15.70;5.10;;;11.00;99.90;;;;;;2103266;28;20119;-73
2023/05/27 02:19:26;;;;;;;12.68;4.40;;;11.00;99.90;;;;;;2104878;28;20582;-73
2023/05/27 02:20:27;;;;;;;18.05;5.70;;;10.90;99.90;;;;;;2102353;28;20048;-73
2023/05/27 02:21:27;;;;;;;14.65;5.30;;;10.90;99.90;;;;;;2103213;28;20078;-73
2023/05/27 02:22:28;;;;;;;15.23;4.97;;;10.90;99.90;;;;;;2105410;28;20031;-73
2023/05/27 02:23:28;;;;;;;15.98;5.32;;;10.90;99.90;;;;;;2101743;28;20109;-73
2023/05/27 02:24:29;;;;;;;12.75;4.95;;;10.90;99.90;;;;;;2103999;28;20058;-73
2023/05/27 02:25:29;;;;;;;17.58;5.50;;;10.90;99.90;;;;;;2103258;28;20429;-73
2023/05/27 02:26:30;;;;;;;14.88;5.72;;;10.90;99.90;;;;;;2104285;28;20032;-73
2023/05/27 02:27:30;;;;;;;18.92;5.43;;;10.90;99.90;;;;;;2102541;28;20035;-73
2023/05/27 02:28:31;;;;;;;16.60;6.20;;;10.90;99.90;;;;;;2102441;28;20028;-73
2023/05/27 02:29:31;;;;;;;20.40;6.20;;;10.90;99.90;;;;;;2104863;28;20817;-73
2023/05/27 02:30:32;;;;;;;18.15;6.30;;;10.90;99.90;;;;;;2101536;28;20028;-73
2023/05/27 02:31:32;;;;;;;16.85;6.35;;;10.80;99.90;;;;;;2101479;28;20229;-73
2023/05/27 02:32:33;;;;;;;14.57;5.63;;;10.80;99.90;;;;;;2104489;28;20028;-73
2023/05/27 02:33:34;;;;;;;18.10;5.75;;;10.80;99.90;;;;;;2106132;28;20019;-73
2023/05/27 02:34:37;;;;;;;14.98;5.50;;;10.80;99.90;;;;;;2104484;28;20036;-73
2023/05/27 02:35:37;;;;;;;16.98;5.65;;;10.80;99.90;;;;;;2103908;28;20077;-74
2023/05/27 02:36:38;;;;;;;15.50;6.05;;;10.80;99.90;;;;;;2104629;28;20020;-73
2023/05/27 02:37:39;;;;;;;12.63;5.30;;;10.80;99.90;;;;;;2107409;28;20020;-73
2023/05/27 02:38:40;;;;;;;20.45;6.78;;;10.80;99.90;;;;;;2107609;28;20081;-73
2023/05/27 02:39:40;;;;;;;16.05;5.32;;;10.70;99.90;;;;;;2101583;28;20107;-73
2023/05/27 02:40:41;;;;;;;18.63;5.60;;;10.70;99.90;;;;;;2104494;28;20119;-73
2023/05/27 02:41:41;;;;;;;16.95;6.25;;;10.70;99.90;;;;;;2102722;28;20035;-73
2023/05/27 02:42:42;;;;;;;16.65;6.10;;;10.70;99.90;;;;;;2103878;28;20024;-73
2023/05/27 02:43:43;;;;;;;16.10;5.82;;;10.70;99.90;;;;;;2103436;28;20028;-73
2023/05/27 02:44:43;;;;;;;12.35;5.80;;;10.70;99.90;;;;;;2103520;28;20028;-73
2023/05/27 02:45:43;;;;;;;15.50;6.50;;;10.70;99.90;;;;;;2103476;28;20024;-73
2023/05/27 02:46:44;;;;;;;20.33;6.78;;;10.70;99.90;;;;;;2102228;28;20023;-73
2023/05/27 02:47:45;;;;;;;15.40;6.35;;;10.60;99.90;;;;;;2102962;28;20109;-73
2023/05/27 02:48:46;;;;;;;15.15;6.70;;;10.60;99.90;;;;;;2104332;28;20036;-73
2023/05/27 02:49:47;;;;;;;11.98;6.03;;;10.60;99.90;;;;;;2100446;28;20472;-73
2023/05/27 02:50:48;;;;;;;18.95;7.40;;;10.60;99.90;;;;;;2103140;28;20078;-73
2023/05/27 02:51:48;;;;;;;15.48;6.00;;;10.60;99.90;;;;;;2103438;28;20020;-73
2023/05/27 02:52:49;;;;;;;19.40;6.32;;;10.60;99.90;;;;;;2104795;28;20020;-73
2023/05/27 02:53:50;;;;;;;16.02;5.60;;;10.60;99.90;;;;;;2103780;28;20028;-73
2023/05/27 02:54:51;;;;;;;17.02;6.25;;;10.50;99.90;;;;;;2100797;28;20530;-73
2023/05/27 02:55:52;;;;;;;18.88;5.80;;;10.50;99.90;;;;;;2103258;28;20932;-73
2023/05/27 02:56:52;;;;;;;16.48;6.40;;;10.50;99.90;;;;;;2103932;28;20078;-73
2023/05/27 02:57:53;;;;;;;19.67;6.20;;;10.50;99.90;;;;;;2101116;28;20085;-73
2023/05/27 02:58:53;;;;;;;15.75;5.53;;;10.40;99.90;;;;;;2103975;28;20637;-73
2023/05/27 02:59:54;;;;;;;16.90;5.53;;;10.40;99.90;;;;;;2102717;28;20059;-73
2023/05/27 03:00:54;;;;;;;14.32;5.45;;;10.40;99.90;;;;;;2103814;28;20131;-73
2023/05/27 03:01:55;;;;;;;22.13;6.72;;;10.40;99.90;;;;;;2104802;28;20072;-73
2023/05/27 03:02:55;;;;;;;18.35;6.50;;;10.40;99.90;;;;;;2104192;28;20032;-73
2023/05/27 03:03:56;;;;;;;17.83;7.40;;;10.40;99.90;;;;;;2104210;28;20111;-73
2023/05/27 03:04:57;;;;;;;18.75;7.00;;;10.40;99.90;;;;;;2105279;28;20166;-73
2023/05/27 03:05:57;;;;;;;19.67;6.43;;;10.40;99.90;;;;;;2104035;28;20803;-73
2023/05/27 03:06:58;;;;;;;18.83;7.45;;;10.40;99.90;;;;;;2104620;28;20036;-73
2023/05/27 03:07:59;;;;;;;17.15;6.50;;;10.40;99.90;;;;;;2107412;28;20577;-73
2023/05/27 03:08:59;;;;;;;15.52;5.60;;;10.40;99.90;;;;;;2103123;28;20045;-73
2023/05/27 03:10:00;;;;;;;19.08;6.70;;;10.40;99.90;;;;;;2102886;28;20047;-73
2023/05/27 03:11:00;;;;;;;21.20;5.93;;;10.40;99.90;;;;;;2105957;28;20024;-73
2023/05/27 03:12:01;;;;;;;17.92;6.18;;;10.40;99.90;;;;;;2103811;28;20012;-73
2023/05/27 03:13:02;;;;;;;22.00;6.63;;;10.40;99.90;;;;;;2105471;28;20423;-73
2023/05/27 03:14:02;;;;;;;14.65;6.07;;;10.40;99.90;;;;;;2102925;28;20017;-73
2023/05/27 03:15:03;;;;;;;17.75;6.15;;;10.40;99.90;;;;;;2103877;28;20457;-73
2023/05/27 03:16:05;;;;;;;14.15;5.47;;;10.30;99.90;;;;;;2104703;28;20012;-73
2023/05/27 03:17:05;;;;;;;15.35;5.95;;;10.30;99.90;;;;;;2101316;28;20028;-73
2023/05/27 03:18:06;;;;;;;13.75;6.25;;;10.40;99.90;;;;;;2102801;28;20109;-73
2023/05/27 03:19:08;;;;;;;17.15;6.30;;;10.40;99.90;;;;;;2103650;28;20028;-72
2023/05/27 03:20:09;;;;;;;17.48;6.60;;;10.30;99.90;;;;;;2101963;28;20070;-73
2023/05/27 03:21:10;;;;;;;20.77;6.45;;;10.30;99.90;;;;;;2105131;28;20059;-73
2023/05/27 03:22:10;;;;;;;22.38;7.20;;;10.30;99.90;;;;;;2103090;28;20025;-73
2023/05/27 03:23:11;;;;;;;14.90;6.13;;;10.30;99.90;;;;;;2104387;28;20020;-72
2023/05/27 03:24:13;;;;;;;13.75;5.28;;;10.30;99.90;;;;;;2102249;28;20028;-73
2023/05/27 03:25:14;;;;;;;10.88;5.60;;;10.30;99.90;;;;;;2101646;28;20024;-73
2023/05/27 03:26:15;;;;;;;19.95;6.85;;;10.30;99.90;;;;;;2096149;28;20507;-73
2023/05/27 03:27:16;;;;;;;20.63;6.80;;;10.30;99.90;;;;;;2102846;28;20509;-73
2023/05/27 03:28:16;;;;;;;15.38;6.10;;;10.30;99.90;;;;;;2104400;28;20048;-73
2023/05/27 03:29:17;;;;;;;15.27;6.80;;;10.30;99.90;;;;;;2104406;28;20101;-73
2023/05/27 03:30:17;;;;;;;16.30;6.85;;;10.30;99.90;;;;;;2103216;28;20028;-72
2023/05/27 03:31:18;;;;;;;20.27;7.55;;;10.30;99.90;;;;;;2104432;28;20032;-73
2023/05/27 03:32:19;;;;;;;16.38;6.82;;;10.30;99.90;;;;;;2105343;28;20654;-72
2023/05/27 03:33:19;;;;;;;15.75;6.00;;;10.30;99.90;;;;;;2104358;28;20023;-72
2023/05/27 03:34:20;;;;;;;14.18;5.57;;;10.30;99.90;;;;;;2094264;28;20028;-73
2023/05/27 03:35:20;;;;;;;16.55;6.45;;;10.20;99.90;;;;;;2100939;28;20620;-72
2023/05/27 03:36:21;;;;;;;19.35;6.53;;;10.30;99.90;;;;;;2103893;28;20162;-73
2023/05/27 03:37:21;;;;;;;18.15;6.32;;;10.30;99.90;;;;;;2103500;28;20055;-73
2023/05/27 03:38:22;;;;;;;15.77;5.68;;;10.30;99.90;;;;;;2102902;28;20540;-73
2023/05/27 03:39:22;;;;;;;15.35;6.07;;;10.30;99.90;;;;;;2103581;28;20020;-73
2023/05/27 03:40:23;;;;;;;15.77;6.07;;;10.30;99.90;;;;;;2105071;28;20012;-73
2023/05/27 03:41:24;;;;;;;15.25;6.65;;;10.30;99.90;;;;;;2103311;28;20063;-73
2023/05/27 03:42:24;;;;;;;18.67;6.25;;;10.30;99.90;;;;;;2105037;28;20078;-73
2023/05/27 03:43:25;;;;;;;18.48;6.97;;;10.30;99.90;;;;;;2103571;28;20049;-73
2023/05/27 03:44:25;;;;;;;17.55;6.88;;;10.30;99.90;;;;;;2105610;28;20081;-73
2023/05/27 03:45:26;;;;;;;20.77;7.88;;;10.30;99.90;;;;;;2105259;28;20031;-73
2023/05/27 03:46:27;;;;;;;18.20;7.20;;;10.30;99.90;;;;;;2103469;28;20558;-72
2023/05/27 03:47:27;;;;;;;23.35;7.47;;;10.30;99.90;;;;;;2106664;28;20659;-73
2023/05/27 03:48:28;;;;;;;18.27;6.95;;;10.30;99.90;;;;;;2104075;28;20035;-73
2023/05/27 03:49:28;;;;;;;19.00;7.30;;;10.20;99.90;;;;;;2102893;28;20028;-72
2023/05/27 03:50:29;;;;;;;18.30;7.53;;;10.20;99.90;;;;;;2105647;28;20054;-72
2023/05/27 03:51:31;;;;;;;16.23;6.70;;;10.20;99.90;;;;;;2105619;28;20051;-73
2023/05/27 03:52:31;;;;;;;17.85;6.32;;;10.30;99.90;;;;;;2104080;28;20023;-72
2023/05/27 03:53:32;;;;;;;16.08;6.50;;;10.30;99.90;;;;;;2106748;28;20043;-72
2023/05/27 03:54:32;;;;;;;17.40;7.22;;;10.30;99.90;;;;;;2103407;28;20465;-73
2023/05/27 03:55:33;;;;;;;17.85;6.68;;;10.20;99.90;;;;;;2105654;28;20020;-73
2023/05/27 03:56:33;;;;;;;15.95;6.75;;;10.20;99.90;;;;;;2104266;28;20081;-73
2023/05/27 03:57:34;;;;;;;18.45;7.35;;;10.30;99.90;;;;;;2105348;28;20835;-73
2023/05/27 03:58:34;;;;;;;21.30;7.72;;;10.30;99.90;;;;;;2105894;28;20111;-73
2023/05/27 03:59:36;;;;;;;18.63;7.47;;;10.20;99.90;;;;;;2102885;28;20016;-73
2023/05/27 04:00:38;;;;;;;15.73;6.40;;;10.30;99.90;;;;;;2102892;28;20793;-72
2023/05/27 04:01:39;;;;;;;20.30;7.25;;;10.30;99.90;;;;;;2105196;28;20379;-73
2023/05/27 04:02:40;;;;;;;24.90;7.88;;;10.30;99.90;;;;;;2105029;28;20111;-73
2023/05/27 04:03:41;;;;;;;17.38;7.13;;;10.30;99.90;;;;;;2104861;28;20047;-73
2023/05/27 04:04:41;;;;;;;15.48;6.80;;;10.30;99.90;;;;;;2103937;28;20521;-72
2023/05/27 04:05:42;;;;;;;18.05;6.72;;;10.30;99.90;;;;;;2103488;28;20369;-72
2023/05/27 04:06:43;;;;;;;16.17;6.53;;;10.30;99.90;;;;;;2106305;28;20024;-72
2023/05/27 04:07:44;;;;;;;17.83;7.00;;;10.30;99.90;;;;;;2104201;28;20066;-72
2023/05/27 04:08:45;;;;;;;16.90;6.80;;;10.40;99.90;;;;;;2103292;28;20021;-72
2023/05/27 04:09:45;;;;;;;14.20;7.25;;;10.40;99.90;;;;;;2103469;28;20069;-73
2023/05/27 04:10:46;;;;;;;15.60;7.20;;;10.40;99.90;;;;;;2104904;28;20105;-72
2023/05/27 04:11:46;;;;;;;15.57;7.30;;;10.40;99.90;;;;;;2105912;28;20035;-72
2023/05/27 04:12:47;;;;;;;15.63;7.18;;;10.40;99.90;;;;;;2104439;28;20023;-73
2023/05/27 04:13:48;;;;;;;21.95;7.15;;;10.40;99.90;;;;;;2105849;28;20024;-72
2023/05/27 04:14:49;;;;;;;15.05;5.88;;;10.40;99.90;;;;;;2105683;28;20038;-72
2023/05/27 04:15:50;;;;;;;14.95;6.50;;;10.40;99.90;;;;;;2101545;28;20513;-73
2023/05/27 04:16:50;;;;;;;22.35;7.93;;;10.40;99.90;;;;;;2104375;28;20024;-72
2023/05/27 04:17:51;;;;;;;20.08;7.65;;;10.40;99.90;;;;;;2104290;28;20533;-72
2023/05/27 04:18:52;;;;;;;16.67;6.25;;;10.40;99.90;;;;;;2101911;28;20079;-72
2023/05/27 04:19:52;;;;;;;18.13;7.22;;;10.40;99.90;;;;;;2105629;28;20105;-72
2023/05/27 04:20:54;;;;;;;16.35;6.72;;;10.40;99.90;;;;;;2099556;28;20151;-72
2023/05/27 04:21:55;;;;;;;16.90;7.60;;;10.50;99.90;;;;;;2097635;28;20061;-72
2023/05/27 04:22:55;;;;;;;18.77;7.35;;;10.50;99.90;;;;;;2106357;28;20047;-72
2023/05/27 04:23:56;;;;;;;15.45;6.30;;;10.60;99.90;;;;;;2102538;28;20059;-72
2023/05/27 04:24:56;;;;;;;18.25;7.07;;;10.70;99.90;;;;;;2103743;28;20023;-72
2023/05/27 04:25:57;;;;;;;16.35;6.45;;;10.80;99.90;;;;;;2107314;28;20028;-72
2023/05/27 04:26:57;;;;;;;16.50;6.95;;;10.90;99.90;;;;;;2104702;28;20039;-72
2023/05/27 04:27:58;;;;;;;19.00;7.35;;;11.00;99.90;;;;;;2106168;28;20523;-72
2023/05/27 04:29:01;;;;;;;16.73;7.10;;;11.10;99.90;;;;;;2104144;28;20012;-72
2023/05/27 04:30:07;;;;;;;15.88;6.10;;;11.20;99.90;;;;;;2106682;28;20043;-72
2023/05/27 04:31:12;;;;;;;16.17;7.05;;;11.30;99.90;;;;;;2104472;28;20028;-72
2023/05/27 04:32:12;;;;;;;21.23;7.70;;;11.30;99.90;;;;;;2103279;28;20040;-72
2023/05/27 04:33:15;;;;;;;16.25;7.13;;;11.30;99.90;;;;;;2104195;28;20031;-72
2023/05/27 04:34:15;;;;;;;17.35;7.03;;;11.30;99.90;;;;;;2105314;28;20055;-72
2023/05/27 04:35:17;;;;;;;14.38;6.25;;;11.30;99.90;;;;;;2103294;28;20434;-72
2023/05/27 04:36:18;;;;;;;19.48;7.65;;;11.30;99.90;;;;;;2104841;28;20672;-72
2023/05/27 04:37:19;;;;;;;15.38;6.70;;;11.30;99.90;;;;;;2103985;28;20028;-72
2023/05/27 04:38:20;;;;;;;16.17;6.57;;;11.30;99.90;;;;;;2105950;28;20430;-72
2023/05/27 04:39:21;;;;;;;14.77;6.75;;;11.40;99.90;;;;;;2104936;28;20148;-72
2023/05/27 04:40:22;;;;;;;16.15;7.28;;;11.40;99.90;;;;;;2095791;28;20028;-72
2023/05/27 04:41:28;;;;;;;13.57;6.13;;;11.40;99.90;;;;;;2096927;28;20020;-72
2023/05/27 04:42:29;;;;;;;14.35;6.05;;;11.40;99.90;;;;;;2094264;28;20028;-72
2023/05/27 04:43:30;;;;;;;20.05;6.85;;;11.40;99.90;;;;;;2098928;28;20020;-72
2023/05/27 04:44:31;;;;;;;15.48;6.70;;;11.50;99.90;;;;;;2105708;28;20072;-72
2023/05/27 04:45:31;;;;;;;13.10;6.03;;;11.50;99.90;;;;;;2106162;28;20080;-72
2023/05/27 04:46:33;;;;;;;17.63;6.95;;;11.60;99.90;;;;;;2105820;28;20020;-72
2023/05/27 04:47:36;;;;;;;24.27;6.70;;;11.60;99.90;;;;;;2105513;28;20080;-72
2023/05/27 04:48:37;;;;;;;14.65;6.85;;;11.60;99.90;;;;;;2105755;28;20019;-72
2023/05/27 04:49:37;;;;;;;14.13;5.60;;;11.60;99.90;;;;;;2103459;28;21741;-72
2023/05/27 04:50:39;;;;;;;17.05;6.97;;;11.70;99.90;;;;;;2104058;28;20019;-72
2023/05/27 04:51:39;;;;;;;21.58;7.20;;;11.70;99.90;;;;;;2105393;28;20539;-72
2023/05/27 04:52:40;;;;;;;17.23;6.28;;;11.80;99.90;;;;;;2103954;28;20395;-72
2023/05/27 04:53:41;;;;;;;17.55;7.00;;;11.80;99.90;;;;;;2105160;28;20066;-72
2023/05/27 04:54:42;;;;;;;17.60;6.95;;;11.90;99.90;;;;;;2103911;28;20020;-72
2023/05/27 04:55:42;;;;;;;22.08;7.70;;;11.90;99.90;;;;;;2104970;28;20796;-72
2023/05/27 04:56:43;;;;;;;17.80;7.57;;;12.00;99.90;;;;;;2102898;28;20702;-72
2023/05/27 04:57:43;;;;;;;16.23;6.60;;;12.00;99.90;;;;;;2103411;28;20028;-72
2023/05/27 04:58:46;;;;;;;18.70;7.20;;;12.10;99.90;;;;;;2104761;28;20024;-72
2023/05/27 05:01:04;;;;;;;16.98;7.18;;;12.10;99.90;;;;;;2103497;28;20027;-72
2023/05/27 05:02:10;;;;;;;19.15;6.78;;;12.10;99.90;;;;;;2107184;28;20016;-72
2023/05/27 05:03:20;;;;;;;20.58;7.38;;;12.20;99.90;;;;;;2102390;28;20020;-72
2023/05/27 05:04:20;;;;;;;16.80;6.05;;;12.20;99.90;;;;;;2102324;28;20031;-72
2023/05/27 05:05:21;;;;;;;16.83;6.50;;;12.30;99.90;;;;;;2105484;28;20028;-72
2023/05/27 05:06:22;;;;;;;14.20;6.13;;;12.30;99.90;;;;;;2104157;28;20038;-72
2023/05/27 05:07:23;;;;;;;15.05;6.93;;;12.40;99.90;;;;;;2103214;28;20379;-72
2023/05/27 05:08:23;;;;;;;15.90;6.68;;;12.40;99.90;;;;;;2107453;28;20094;-73
2023/05/27 05:09:24;;;;;;;19.10;6.95;;;12.40;99.90;;;;;;2103317;28;20016;-73
2023/05/27 05:10:25;;;;;;;11.55;6.32;;;12.50;99.90;;;;;;2101965;28;20024;-73
2023/05/27 05:11:26;;;;;;;17.40;7.15;;;12.50;99.90;;;;;;2105343;28;20055;-73
2023/05/27 05:12:26;;;;;;;18.05;6.65;;;12.60;99.90;;;;;;2103660;28;20030;-72
2023/05/27 05:13:28;;;;;;;15.13;6.38;;;12.60;99.90;;;;;;2103481;28;20047;-73
2023/05/27 05:14:29;;;;;;;17.75;6.47;;;12.60;99.90;;;;;;2105683;28;20115;-73
2023/05/27 05:15:31;;;;;;;16.27;6.57;;;12.60;99.90;;;;;;2103951;28;20061;-73
2023/05/27 05:16:31;;;;;;;21.48;7.43;;;12.60;99.90;;;;;;2104342;28;20831;-73
2023/05/27 05:17:32;;;;;;;15.80;7.15;;;12.60;99.90;;;;;;2104565;28;20374;-73